Time;durP1;ratioP1;P1;durP2;ratioP2;P2;SDS_P1;SDS_P2;PMS_P1;PMS_P2;Temp;Humidity;BMP_temperature;BMP_pressure;BME280_temperature;BME280_humidity;BME280_pressure;Samples;Min_cycle;Max_cycle;Signal;HPM_P1;HPM_P2
2023/12/12 00:01:34;;;;;;;0.00;0.00;;;;;;;;;;6217470;23;20493;-89
2023/12/12 00:04:00;;;;;;;0.00;0.00;;;;;;;;;;6192088;23;20030;-89
2023/12/12 00:06:25;;;;;;;0.00;0.00;;;;;;;;;;6216592;23;20000;-89
2023/12/12 00:08:50;;;;;;;0.00;0.00;;;;;;;;;;6191467;23;20691;-89
2023/12/12 00:11:16;;;;;;;0.00;0.00;;;;;;;;;;6216564;23;20006;-89
2023/12/12 00:13:42;;;;;;;0.00;0.00;;;;;;;;;;6241616;23;20012;-88
2023/12/12 00:16:08;;;;;;;0.00;0.00;;;;;;;;;;6216718;23;20004;-89
2023/12/12 00:18:34;;;;;;;0.00;0.00;;;;;;;;;;6241947;23;20011;-88
2023/12/12 00:21:01;;;;;;;0.00;0.00;;;;;;;;;;6242004;22;20143;-89
2023/12/12 00:23:27;;;;;;;0.00;0.00;;;;;;;;;;6216539;23;20058;-89
2023/12/12 00:25:52;;;;;;;0.00;0.00;;;;;;;;;;6241761;22;20410;-89
2023/12/12 00:28:18;;;;;;;0.00;0.00;;;;;;;;;;6216621;23;20034;-89
2023/12/12 00:30:43;;;;;;;0.00;0.00;;;;;;;;;;6241788;23;20039;-89
2023/12/12 00:33:09;;;;;;;0.00;0.00;;;;;;;;;;6241741;23;20004;-89
2023/12/12 00:35:34;;;;;;;0.00;0.00;;;;;;;;;;6241891;23;20368;-89
2023/12/12 00:38:00;;;;;;;0.00;0.00;;;;;;;;;;6242695;22;20004;-89
2023/12/12 00:40:25;;;;;;;0.00;0.00;;;;;;;;;;6243537;22;20004;-88
2023/12/12 00:42:52;;;;;;;0.00;0.00;;;;;;;;;;6242358;23;20003;-89
2023/12/12 00:45:17;;;;;;;0.00;0.00;;;;;;;;;;6241843;23;20004;-88
2023/12/12 00:47:44;;;;;;;0.00;0.00;;;;;;;;;;6218403;23;20343;-89
2023/12/12 00:50:09;;;;;;;0.00;0.00;;;;;;;;;;6193818;23;20005;-89
2023/12/12 00:52:35;;;;;;;0.00;0.00;;;;;;;;;;6246381;22;20324;-88
2023/12/12 00:55:00;;;;;;;0.00;0.00;;;;;;;;;;6219748;23;20000;-90
2023/12/12 00:57:26;;;;;;;0.00;0.00;;;;;;;;;;6219848;23;20647;-89
2023/12/12 00:59:52;;;;;;;0.00;0.00;;;;;;;;;;6245370;23;20078;-89
2023/12/12 01:02:20;;;;;;;0.00;0.00;;;;;;;;;;6246054;22;20340;-89
2023/12/12 01:04:46;;;;;;;0.00;0.00;;;;;;;;;;6243389;23;20058;-89
2023/12/12 01:07:11;;;;;;;0.00;0.00;;;;;;;;;;6243821;23;20008;-90
2023/12/12 01:09:37;;;;;;;0.00;0.00;;;;;;;;;;6243871;23;20013;-89
2023/12/12 01:12:03;;;;;;;0.00;0.00;;;;;;;;;;6218193;23;20008;-89
2023/12/12 01:14:28;;;;;;;0.00;0.00;;;;;;;;;;6243349;23;20004;-89
2023/12/12 01:16:54;;;;;;;0.00;0.00;;;;;;;;;;6192855;23;20432;-89
2023/12/12 01:19:19;;;;;;;0.00;0.00;;;;;;;;;;6243339;23;20001;-89
2023/12/12 01:21:45;;;;;;;0.00;0.00;;;;;;;;;;6241165;23;20004;-89
2023/12/12 01:24:10;;;;;;;0.00;0.00;;;;;;;;;;6217985;23;20046;-90
2023/12/12 01:26:36;;;;;;;0.00;0.00;;;;;;;;;;6243353;23;20126;-89
2023/12/12 01:29:01;;;;;;;0.00;0.00;;;;;;;;;;6245388;22;19996;-87
2023/12/12 01:31:27;;;;;;;0.00;0.00;;;;;;;;;;6244896;22;20004;-88
2023/12/12 01:33:52;;;;;;;0.00;0.00;;;;;;;;;;6218434;23;20004;-87
2023/12/12 01:36:18;;;;;;;0.00;0.00;;;;;;;;;;6242775;23;20035;-88
2023/12/12 01:38:44;;;;;;;0.00;0.00;;;;;;;;;;6218066;23;20023;-89
2023/12/12 01:41:09;;;;;;;0.00;0.00;;;;;;;;;;6243055;23;20084;-89
2023/12/12 01:43:35;;;;;;;0.00;0.00;;;;;;;;;;6217990;23;20004;-90
2023/12/12 01:46:03;;;;;;;0.00;0.00;;;;;;;;;;6243342;23;20004;-89
2023/12/12 01:48:29;;;;;;;0.00;0.00;;;;;;;;;;6243043;23;20418;-90
2023/12/12 01:50:55;;;;;;;0.00;0.00;;;;;;;;;;6217869;23;20007;-89
2023/12/12 01:53:23;;;;;;;0.00;0.00;;;;;;;;;;6217767;23;20046;-90
2023/12/12 01:55:48;;;;;;;0.00;0.00;;;;;;;;;;6217966;23;20000;-89
2023/12/12 01:58:14;;;;;;;0.00;0.00;;;;;;;;;;6217487;23;20130;-89
2023/12/12 02:00:40;;;;;;;0.00;0.00;;;;;;;;;;6243536;22;20084;-89
2023/12/12 02:03:06;;;;;;;0.00;0.00;;;;;;;;;;6217889;23;20014;-90
2023/12/12 02:05:31;;;;;;;0.00;0.00;;;;;;;;;;6243419;23;20024;-89
2023/12/12 02:07:57;;;;;;;0.00;0.00;;;;;;;;;;6242675;23;20004;-88
2023/12/12 02:10:23;;;;;;;0.00;0.00;;;;;;;;;;6217665;23;20363;-89
2023/12/12 02:12:48;;;;;;;0.00;0.00;;;;;;;;;;6217746;23;20431;-89
2023/12/12 02:15:15;;;;;;;0.00;0.00;;;;;;;;;;6244361;22;20075;-89
2023/12/12 02:17:40;;;;;;;0.00;0.00;;;;;;;;;;6192771;23;20094;-89
2023/12/12 02:20:06;;;;;;;0.00;0.00;;;;;;;;;;6217057;23;20008;-89
2023/12/12 02:22:32;;;;;;;0.00;0.00;;;;;;;;;;6217322;23;20444;-88
2023/12/12 02:24:57;;;;;;;0.00;0.00;;;;;;;;;;6216364;23;20005;-89
2023/12/12 02:27:23;;;;;;;0.00;0.00;;;;;;;;;;6217389;23;20004;-90
2023/12/12 02:29:48;;;;;;;0.00;0.00;;;;;;;;;;6217652;23;20364;-89
2023/12/12 02:32:16;;;;;;;0.00;0.00;;;;;;;;;;6242694;23;20363;-89
2023/12/12 02:34:42;;;;;;;0.00;0.00;;;;;;;;;;6243752;22;20000;-88
2023/12/12 02:37:08;;;;;;;0.00;0.00;;;;;;;;;;6192696;23;20014;-88
2023/12/12 02:39:33;;;;;;;0.00;0.00;;;;;;;;;;6216951;23;20004;-88
2023/12/12 02:41:59;;;;;;;0.00;0.00;;;;;;;;;;6244022;22;20355;-89
2023/12/12 02:44:25;;;;;;;0.00;0.00;;;;;;;;;;6243176;23;20004;-89
2023/12/12 02:46:51;;;;;;;0.00;0.00;;;;;;;;;;6217423;23;20008;-86
2023/12/12 02:49:16;;;;;;;0.00;0.00;;;;;;;;;;6217005;23;20010;-87
2023/12/12 02:51:42;;;;;;;0.00;0.00;;;;;;;;;;6224594;23;20003;-87
2023/12/12 02:54:07;;;;;;;0.00;0.00;;;;;;;;;;6255783;23;20016;-87
2023/12/12 02:56:33;;;;;;;0.00;0.00;;;;;;;;;;6256093;22;19999;-88
2023/12/12 02:58:59;;;;;;;0.00;0.00;;;;;;;;;;6254640;22;20018;-89
2023/12/12 03:01:24;;;;;;;0.00;0.00;;;;;;;;;;6230272;23;20382;-88
2023/12/12 03:03:50;;;;;;;0.00;0.00;;;;;;;;;;6251776;23;20355;-89
2023/12/12 03:06:17;;;;;;;0.00;0.00;;;;;;;;;;6242247;23;20004;-89
2023/12/12 03:08:42;;;;;;;0.00;0.00;;;;;;;;;;6241744;23;20011;-88
2023/12/12 03:11:08;;;;;;;0.00;0.00;;;;;;;;;;6191851;23;20004;-88
2023/12/12 03:13:33;;;;;;;0.00;0.00;;;;;;;;;;6191986;23;20066;-89
2023/12/12 03:15:59;;;;;;;0.00;0.00;;;;;;;;;;6216910;23;20414;-89
2023/12/12 03:18:24;;;;;;;0.00;0.00;;;;;;;;;;6216724;23;20459;-90
2023/12/12 03:20:50;;;;;;;0.00;0.00;;;;;;;;;;6217297;23;20004;-90
2023/12/12 03:23:15;;;;;;;0.00;0.00;;;;;;;;;;6216472;23;20363;-89
2023/12/12 03:25:41;;;;;;;0.00;0.00;;;;;;;;;;6216410;23;20004;-90
2023/12/12 03:28:06;;;;;;;0.00;0.00;;;;;;;;;;6242205;23;20042;-88
2023/12/12 03:30:32;;;;;;;0.00;0.00;;;;;;;;;;6217407;23;20000;-88
2023/12/12 03:32:57;;;;;;;0.00;0.00;;;;;;;;;;6216176;23;20013;-88
2023/12/12 03:35:24;;;;;;;0.00;0.00;;;;;;;;;;6241943;23;20086;-90
2023/12/12 03:37:50;;;;;;;0.00;0.00;;;;;;;;;;6241823;23;20082;-87
2023/12/12 03:40:16;;;;;;;0.00;0.00;;;;;;;;;;6242016;23;20066;-88
2023/12/12 03:42:41;;;;;;;0.00;0.00;;;;;;;;;;6241933;23;20004;-88
2023/12/12 03:45:08;;;;;;;0.00;0.00;;;;;;;;;;6241869;23;20026;-87
2023/12/12 03:47:33;;;;;;;0.00;0.00;;;;;;;;;;6241955;23;20004;-89
2023/12/12 03:49:59;;;;;;;0.00;0.00;;;;;;;;;;6241524;23;20091;-88
2023/12/12 03:52:24;;;;;;;0.00;0.00;;;;;;;;;;6243364;22;20015;-88
2023/12/12 03:54:50;;;;;;;0.00;0.00;;;;;;;;;;6243155;22;20043;-89
2023/12/12 03:57:15;;;;;;;0.00;0.00;;;;;;;;;;6243202;22;20308;-88
2023/12/12 03:59:41;;;;;;;0.00;0.00;;;;;;;;;;6216595;23;20024;-88
2023/12/12 04:02:06;;;;;;;0.00;0.00;;;;;;;;;;6216247;23;20428;-86
2023/12/12 04:04:32;;;;;;;0.00;0.00;;;;;;;;;;6243300;22;20004;-87
2023/12/12 04:06:57;;;;;;;0.00;0.00;;;;;;;;;;6243248;22;20007;-87
2023/12/12 04:09:23;;;;;;;0.00;0.00;;;;;;;;;;6241976;23;20329;-89
2023/12/12 04:11:49;;;;;;;0.00;0.00;;;;;;;;;;6241442;23;20447;-88
2023/12/12 04:14:14;;;;;;;0.00;0.00;;;;;;;;;;6216508;23;20098;-88
2023/12/12 04:16:40;;;;;;;0.00;0.00;;;;;;;;;;6242752;22;20015;-88
2023/12/12 04:19:05;;;;;;;0.00;0.00;;;;;;;;;;6241634;23;20039;-88
2023/12/12 04:21:31;;;;;;;0.00;0.00;;;;;;;;;;6242715;22;20007;-88
2023/12/12 04:23:56;;;;;;;0.00;0.00;;;;;;;;;;6216254;23;20086;-88
2023/12/12 04:26:22;;;;;;;0.00;0.00;;;;;;;;;;6241853;23;20000;-87
2023/12/12 04:28:47;;;;;;;0.00;0.00;;;;;;;;;;6242078;23;20011;-87
2023/12/12 04:31:16;;;;;;;0.00;0.00;;;;;;;;;;6243351;22;20058;-89
2023/12/12 04:33:42;;;;;;;0.00;0.00;;;;;;;;;;6241512;23;20090;-87
2023/12/12 04:36:08;;;;;;;0.00;0.00;;;;;;;;;;6241341;23;20015;-89
2023/12/12 04:38:35;;;;;;;0.00;0.00;;;;;;;;;;6216640;23;20004;-89
2023/12/12 04:41:03;;;;;;;0.00;0.00;;;;;;;;;;6243230;22;20000;-88
2023/12/12 04:43:29;;;;;;;0.00;0.00;;;;;;;;;;6241386;23;20004;-88
2023/12/12 04:45:56;;;;;;;0.00;0.00;;;;;;;;;;6216121;23;20465;-89
2023/12/12 04:48:21;;;;;;;0.00;0.00;;;;;;;;;;6241551;23;20424;-89
2023/12/12 04:50:47;;;;;;;0.00;0.00;;;;;;;;;;6241446;23;20011;-87
2023/12/12 04:53:12;;;;;;;0.00;0.00;;;;;;;;;;6216309;23;20004;-90
2023/12/12 04:55:38;;;;;;;0.00;0.00;;;;;;;;;;6242069;23;20004;-91
2023/12/12 04:58:04;;;;;;;0.00;0.00;;;;;;;;;;6241476;23;19992;-90
2023/12/12 05:00:30;;;;;;;0.00;0.00;;;;;;;;;;6242727;22;20467;-90
2023/12/12 05:02:55;;;;;;;0.00;0.00;;;;;;;;;;6241512;23;20596;-90
2023/12/12 05:05:21;;;;;;;0.00;0.00;;;;;;;;;;6216402;23;20006;-88
2023/12/12 05:07:46;;;;;;;0.00;0.00;;;;;;;;;;6216750;23;20065;-88
2023/12/12 05:10:12;;;;;;;0.00;0.00;;;;;;;;;;6216147;23;20008;-89
2023/12/12 05:12:38;;;;;;;0.00;0.00;;;;;;;;;;6241126;23;20004;-89
2023/12/12 05:15:04;;;;;;;0.00;0.00;;;;;;;;;;6242367;23;20141;-85
2023/12/12 05:17:30;;;;;;;0.00;0.00;;;;;;;;;;6191030;23;20012;-86
2023/12/12 05:19:57;;;;;;;0.00;0.00;;;;;;;;;;6216021;23;20066;-86
2023/12/12 05:22:23;;;;;;;0.00;0.00;;;;;;;;;;6215972;23;20378;-86
2023/12/12 05:24:48;;;;;;;0.00;0.00;;;;;;;;;;6215792;23;20075;-85
2023/12/12 05:27:14;;;;;;;0.00;0.00;;;;;;;;;;6241399;23;20000;-86
2023/12/12 05:29:39;;;;;;;0.00;0.00;;;;;;;;;;6240491;23;20066;-86
2023/12/12 05:32:05;;;;;;;0.00;0.00;;;;;;;;;;6242366;22;20000;-86
2023/12/12 05:34:31;;;;;;;0.00;0.00;;;;;;;;;;6217401;23;20022;-86
2023/12/12 05:36:57;;;;;;;0.00;0.00;;;;;;;;;;6193049;23;20090;-88
2023/12/12 05:39:22;;;;;;;0.03;0.00;;;;;;;;;;6217263;23;20004;-85
2023/12/12 05:41:50;;;;;;;0.00;0.00;;;;;;;;;;6220227;23;20020;-85
2023/12/12 05:44:15;;;;;;;0.00;0.00;;;;;;;;;;6216387;23;20000;-86
2023/12/12 05:46:41;;;;;;;0.00;0.00;;;;;;;;;;6192279;23;20008;-89
2023/12/12 05:49:09;;;;;;;0.00;0.00;;;;;;;;;;6215800;23;20087;-88
2023/12/12 05:51:39;;;;;;;0.00;0.00;;;;;;;;;;6243107;23;20075;-88
2023/12/12 05:54:05;;;;;;;;;;;;;;;;;;6190530;23;20008;-86
2023/12/12 05:56:33;;;;;;;0.00;0.00;;;;;;;;;;6240820;23;19983;-88
2023/12/12 05:59:00;;;;;;;0.00;0.00;;;;;;;;;;6223405;23;20023;-86
2023/12/12 06:01:25;;;;;;;0.00;0.00;;;;;;;;;;6195466;23;20019;-91
2023/12/12 06:03:57;;;;;;;0.00;0.00;;;;;;;;;;6241194;23;20004;-89
2023/12/12 06:06:23;;;;;;;0.00;0.00;;;;;;;;;;6218203;23;20019;-88
2023/12/12 06:08:54;;;;;;;0.00;0.00;;;;;;;;;;6224805;23;20004;-91
2023/12/12 06:11:25;;;;;;;0.00;0.00;;;;;;;;;;6223506;23;20000;-88
2023/12/12 06:13:52;;;;;;;0.00;0.00;;;;;;;;;;6213673;23;20012;-87
2023/12/12 06:16:20;;;;;;;0.00;0.00;;;;;;;;;;6243463;22;20442;-89
2023/12/12 06:18:46;;;;;;;0.00;0.00;;;;;;;;;;6163686;23;20400;-91
2023/12/12 06:24:38;;;;;;;0.00;0.00;;;;;;;;;;6121672;23;20068;-89
2023/12/12 06:27:03;;;;;;;0.10;0.00;;;;;;;;;;6151225;23;20008;-89
2023/12/12 06:29:30;;;;;;;0.00;0.00;;;;;;;;;;6142684;23;20439;-90
2023/12/12 06:31:55;;;;;;;0.00;0.00;;;;;;;;;;6192785;23;20143;-90
2023/12/12 06:34:25;;;;;;;0.00;0.00;;;;;;;;;;6221918;23;20074;-89
2023/12/12 06:36:51;;;;;;;0.00;0.00;;;;;;;;;;6193978;23;20004;-89
2023/12/12 06:39:18;;;;;;;0.00;0.00;;;;;;;;;;6202251;23;20079;-88
2023/12/12 06:41:46;;;;;;;0.00;0.00;;;;;;;;;;6222531;23;20011;-88
2023/12/12 06:44:13;;;;;;;0.00;0.00;;;;;;;;;;6167432;23;20010;-89
2023/12/12 06:46:39;;;;;;;0.00;0.00;;;;;;;;;;6165258;23;20419;-90
2023/12/12 06:49:06;;;;;;;0.00;0.00;;;;;;;;;;6188393;23;20004;-90
2023/12/12 06:51:32;;;;;;;0.00;0.00;;;;;;;;;;6167049;23;20012;-89
2023/12/12 06:56:58;;;;;;;0.25;0.00;;;;;;;;;;6275404;22;20026;-86
2023/12/12 06:59:27;;;;;;;0.00;0.00;;;;;;;;;;6275052;22;20007;-87
2023/12/12 07:01:56;;;;;;;0.00;0.00;;;;;;;;;;6220455;22;20011;-85
2023/12/12 07:05:19;;;;;;;;;;;;;;;;;;;;;
2023/12/12 07:07:45;;;;;;;0.00;0.00;;;;;;;;;;6244211;23;20036;-86
2023/12/12 07:13:32;;;;;;;0.00;0.00;;;;;;;;;;6210792;22;20400;-80
2023/12/12 07:16:06;;;;;;;0.00;0.00;;;;;;;;;;6224309;22;20390;-85
2023/12/12 07:40:22;;;;;;;0.00;0.00;;;;;;;;;;6280645;22;20023;-88
2023/12/12 07:42:47;;;;;;;0.00;0.00;;;;;;;;;;6238422;22;20003;-88
2023/12/12 07:45:13;;;;;;;0.00;0.00;;;;;;;;;;6273344;22;20048;-90
2023/12/12 07:47:39;;;;;;;0.00;0.00;;;;;;;;;;6239451;22;20075;-87
2023/12/12 07:50:05;;;;;;;0.00;0.00;;;;;;;;;;6265242;22;20011;-86
2023/12/12 07:52:43;;;;;;;0.00;0.00;;;;;;;;;;6250736;22;20110;-88
2023/12/12 07:55:12;;;;;;;0.00;0.00;;;;;;;;;;6199246;22;20106;-84
2023/12/12 07:57:40;;;;;;;0.00;0.00;;;;;;;;;;6218524;22;20275;-85
2023/12/12 08:00:13;;;;;;;0.00;0.00;;;;;;;;;;6226988;23;20000;-85
2023/12/12 08:05:06;;;;;;;0.00;0.00;;;;;;;;;;6244284;22;20023;-85
2023/12/12 08:07:31;;;;;;;0.00;0.00;;;;;;;;;;6187356;22;20015;-82
2023/12/12 08:09:57;;;;;;;0.00;0.00;;;;;;;;;;6245166;22;20007;-82
2023/12/12 08:12:25;;;;;;;0.00;0.00;;;;;;;;;;6272240;22;20061;-87
2023/12/12 08:14:57;;;;;;;0.00;0.00;;;;;;;;;;6194281;22;20011;-85
2023/12/12 08:17:32;;;;;;;0.00;0.00;;;;;;;;;;6219435;22;20469;-82
2023/12/12 08:19:58;;;;;;;0.00;0.00;;;;;;;;;;6216710;22;19999;-84
2023/12/12 08:22:35;;;;;;;0.00;0.00;;;;;;;;;;6197802;22;20646;-85
2023/12/12 08:25:02;;;;;;;0.00;0.00;;;;;;;;;;6211891;22;20026;-80
2023/12/12 08:27:28;;;;;;;0.00;0.00;;;;;;;;;;6268506;22;20423;-78
2023/12/12 08:29:53;;;;;;;0.00;0.00;;;;;;;;;;6265718;22;20030;-84
2023/12/12 08:32:19;;;;;;;0.00;0.00;;;;;;;;;;6261881;22;20011;-85
2023/12/12 08:34:44;;;;;;;0.00;0.00;;;;;;;;;;6270247;22;20011;-86
2023/12/12 08:37:10;;;;;;;0.00;0.00;;;;;;;;;;6240920;22;20442;-88
2023/12/12 08:39:36;;;;;;;0.00;0.00;;;;;;;;;;6246981;22;20026;-89
2023/12/12 08:42:02;;;;;;;0.00;0.00;;;;;;;;;;6247757;22;20007;-88
2023/12/12 08:44:28;;;;;;;0.00;0.00;;;;;;;;;;6245643;22;20036;-89
2023/12/12 08:46:54;;;;;;;0.00;0.00;;;;;;;;;;6248143;22;20065;-88
2023/12/12 08:49:20;;;;;;;0.00;0.00;;;;;;;;;;6224314;22;20022;-88
2023/12/12 08:51:45;;;;;;;0.00;0.00;;;;;;;;;;6246562;22;20003;-88
2023/12/12 08:54:11;;;;;;;0.00;0.00;;;;;;;;;;6255856;22;20032;-88
2023/12/12 08:56:38;;;;;;;0.00;0.00;;;;;;;;;;6262127;22;20100;-87
2023/12/12 08:59:04;;;;;;;0.00;0.00;;;;;;;;;;6290374;22;20003;-88
2023/12/12 09:01:29;;;;;;;0.00;0.00;;;;;;;;;;6255092;22;20008;-85
2023/12/12 09:03:56;;;;;;;0.00;0.00;;;;;;;;;;6252422;22;20023;-85
2023/12/12 09:06:27;;;;;;;0.00;0.00;;;;;;;;;;6283026;22;20006;-88
2023/12/12 09:09:31;;;;;;;0.00;0.00;;;;;;;;;;6244031;22;19996;-94
2023/12/12 09:12:04;;;;;;;0.00;0.00;;;;;;;;;;6258084;22;20007;-88
2023/12/12 09:14:30;;;;;;;0.00;0.00;;;;;;;;;;6211690;22;19999;-86
2023/12/12 09:19:27;;;;;;;0.00;0.00;;;;;;;;;;6279889;22;20569;-88
2023/12/12 09:21:54;;;;;;;0.00;0.00;;;;;;;;;;6231072;22;20008;-87
2023/12/12 09:24:20;;;;;;;0.00;0.00;;;;;;;;;;6188339;23;20032;-84
2023/12/12 09:26:46;;;;;;;0.00;0.00;;;;;;;;;;6186697;23;20086;-84
2023/12/12 09:37:05;;;;;;;0.00;0.00;;;;;;;;;;6287704;22;20016;-91
2023/12/12 09:39:40;;;;;;;0.00;0.00;;;;;;;;;;6228671;22;20409;-87
2023/12/12 09:42:07;;;;;;;0.00;0.00;;;;;;;;;;6251035;22;20004;-83
2023/12/12 09:44:52;;;;;;;0.00;0.00;;;;;;;;;;6224229;22;20053;-86
2023/12/12 09:47:28;;;;;;;0.00;0.00;;;;;;;;;;6225094;22;20029;-85
2023/12/12 09:50:12;;;;;;;0.00;0.00;;;;;;;;;;6208530;22;20107;-86
2023/12/12 09:52:41;;;;;;;0.00;0.00;;;;;;;;;;6214560;23;20030;-86
2023/12/12 09:56:01;;;;;;;0.00;0.00;;;;;;;;;;6190926;23;20495;-88
2023/12/12 09:58:27;;;;;;;0.00;0.00;;;;;;;;;;6196915;23;20015;-82
2023/12/12 10:01:23;;;;;;;0.00;0.00;;;;;;;;;;6238355;23;20000;-91
2023/12/12 10:03:49;;;;;;;0.00;0.00;;;;;;;;;;6218504;23;20019;-84
2023/12/12 10:06:21;;;;;;;0.00;0.00;;;;;;;;;;6213764;23;20375;-87
2023/12/12 10:08:46;;;;;;;0.00;0.00;;;;;;;;;;6188455;23;20064;-86
2023/12/12 10:11:19;;;;;;;0.00;0.00;;;;;;;;;;6214703;23;20205;-89
2023/12/12 10:14:27;;;;;;;0.00;0.00;;;;;;;;;;6215583;23;20008;-89
2023/12/12 10:17:10;;;;;;;0.00;0.00;;;;;;;;;;6212034;23;20014;-87
2023/12/12 10:19:39;;;;;;;0.00;0.00;;;;;;;;;;6189447;23;20662;-85
2023/12/12 10:22:05;;;;;;;0.00;0.00;;;;;;;;;;6164373;23;20012;-80
2023/12/12 10:24:33;;;;;;;0.00;0.00;;;;;;;;;;6259433;22;20212;-89
2023/12/12 10:27:53;;;;;;;0.00;0.00;;;;;;;;;;6271943;22;20145;-86
2023/12/12 10:30:21;;;;;;;0.00;0.00;;;;;;;;;;6260557;22;20140;-81
2023/12/12 10:32:48;;;;;;;0.00;0.00;;;;;;;;;;6249232;22;20014;-84
2023/12/12 10:35:19;;;;;;;0.00;0.00;;;;;;;;;;6274732;22;20055;-85
2023/12/12 10:37:48;;;;;;;0.00;0.00;;;;;;;;;;6281521;22;20405;-84
2023/12/12 10:43:14;;;;;;;0.00;0.00;;;;;;;;;;6240139;22;20011;-86
2023/12/12 10:45:43;;;;;;;0.00;0.00;;;;;;;;;;6246138;22;20011;-85
2023/12/12 10:48:11;;;;;;;0.00;0.00;;;;;;;;;;6252489;22;20103;-85
2023/12/12 10:50:36;;;;;;;0.00;0.00;;;;;;;;;;6227150;22;20115;-84
2023/12/12 10:53:12;;;;;;;0.00;0.00;;;;;;;;;;6215107;22;20050;-84
2023/12/12 10:55:37;;;;;;;0.00;0.00;;;;;;;;;;6207163;22;20008;-85
2023/12/12 10:58:25;;;;;;;0.00;0.00;;;;;;;;;;6255620;22;20443;-84
2023/12/12 11:04:05;;;;;;;0.00;0.00;;;;;;;;;;6271862;22;20024;-85
2023/12/12 11:06:33;;;;;;;0.00;0.00;;;;;;;;;;6247803;22;20004;-83
2023/12/12 11:08:59;;;;;;;0.00;0.00;;;;;;;;;;6226136;22;20091;-83
2023/12/12 11:14:46;;;;;;;0.00;0.00;;;;;;;;;;6243652;22;20083;-87
2023/12/12 11:17:12;;;;;;;0.00;0.00;;;;;;;;;;6217483;23;20095;-84
2023/12/12 11:19:38;;;;;;;0.15;0.00;;;;;;;;;;6196018;23;20084;-84
2023/12/12 11:22:04;;;;;;;0.00;0.00;;;;;;;;;;6199676;23;20007;-85
2023/12/12 11:25:21;;;;;;;0.00;0.00;;;;;;;;;;6256167;23;20023;-87
2023/12/12 11:27:48;;;;;;;0.00;0.00;;;;;;;;;;6225679;23;20010;-86
2023/12/12 11:30:19;;;;;;;0.00;0.00;;;;;;;;;;6170064;23;20005;-83
2023/12/12 11:32:46;;;;;;;0.00;0.00;;;;;;;;;;6194533;23;20427;-85
2023/12/12 11:35:28;;;;;;;0.00;0.00;;;;;;;;;;6243551;23;20004;-82
2023/12/12 11:38:27;;;;;;;0.00;0.00;;;;;;;;;;6242823;23;20003;-82
2023/12/12 11:41:14;;;;;;;0.00;0.00;;;;;;;;;;6180664;23;20024;-83
2023/12/12 11:43:41;;;;;;;0.00;0.00;;;;;;;;;;6186133;23;20015;-83
2023/12/12 11:46:58;;;;;;;;;;;;;;;;;;;;;
2023/12/12 11:49:25;;;;;;;0.00;0.00;;;;;;;;;;6188580;22;20065;-93
2023/12/12 11:52:24;;;;;;;0.00;0.00;;;;;;;;;;6189819;22;20094;-90
2023/12/12 11:54:56;;;;;;;0.00;0.00;;;;;;;;;;6240478;22;20066;-87
2023/12/12 11:57:22;;;;;;;0.00;0.00;;;;;;;;;;6266574;22;20007;-83
2023/12/12 12:00:27;;;;;;;0.00;0.00;;;;;;;;;;6223149;22;20438;-95
2023/12/12 12:03:05;;;;;;;0.00;0.00;;;;;;;;;;6268919;22;20336;-84
2023/12/12 12:05:34;;;;;;;0.00;0.00;;;;;;;;;;6239491;22;20008;-83
2023/12/12 12:08:01;;;;;;;0.00;0.00;;;;;;;;;;6269659;22;20013;-87
2023/12/12 12:10:26;;;;;;;0.10;0.00;;;;;;;;;;6217901;22;20453;-82
2023/12/12 12:12:53;;;;;;;0.00;0.00;;;;;;;;;;6271147;22;20008;-85
2023/12/12 12:15:28;;;;;;;0.15;0.00;;;;;;;;;;6242774;22;20025;-86
2023/12/12 12:17:53;;;;;;;0.00;0.00;;;;;;;;;;6218036;22;20000;-83
2023/12/12 12:20:19;;;;;;;0.00;0.00;;;;;;;;;;6244837;22;20015;-81
2023/12/12 12:22:45;;;;;;;0.00;0.00;;;;;;;;;;6271197;22;20319;-80
2023/12/12 12:25:11;;;;;;;0.00;0.00;;;;;;;;;;6194172;22;20034;-81
2023/12/12 12:27:53;;;;;;;0.00;0.00;;;;;;;;;;6219834;22;20006;-86
2023/12/12 12:30:19;;;;;;;0.00;0.00;;;;;;;;;;6218477;22;20000;-85
2023/12/12 12:33:00;;;;;;;0.00;0.00;;;;;;;;;;6217033;22;20067;-85
2023/12/12 12:35:26;;;;;;;0.00;0.00;;;;;;;;;;6271929;22;20049;-86
2023/12/12 12:37:53;;;;;;;0.00;0.00;;;;;;;;;;6243936;22;20030;-83
2023/12/12 12:40:38;;;;;;;0.00;0.00;;;;;;;;;;6190376;22;20510;-85
2023/12/12 12:43:25;;;;;;;0.00;0.00;;;;;;;;;;6270923;22;20011;-85
2023/12/12 12:45:51;;;;;;;0.00;0.00;;;;;;;;;;6219973;22;20042;-85
2023/12/12 12:48:17;;;;;;;0.00;0.00;;;;;;;;;;6219555;22;20003;-84
2023/12/12 12:50:44;;;;;;;0.00;0.00;;;;;;;;;;6241107;22;20061;-83
2023/12/12 12:53:10;;;;;;;0.00;0.00;;;;;;;;;;6243380;22;20019;-83
2023/12/12 12:55:38;;;;;;;0.00;0.00;;;;;;;;;;6270832;22;20443;-84
2023/12/12 12:58:04;;;;;;;0.00;0.00;;;;;;;;;;6218178;22;20004;-84
2023/12/12 13:00:30;;;;;;;0.00;0.00;;;;;;;;;;6218174;22;20279;-84
2023/12/12 13:02:55;;;;;;;0.00;0.00;;;;;;;;;;6268199;22;20011;-84
2023/12/12 13:05:21;;;;;;;0.00;0.00;;;;;;;;;;6245474;22;20004;-84
2023/12/12 13:07:47;;;;;;;0.00;0.00;;;;;;;;;;6222139;22;20061;-84
2023/12/12 13:10:15;;;;;;;0.00;0.00;;;;;;;;;;6246586;22;20007;-85
2023/12/12 13:12:44;;;;;;;0.00;0.00;;;;;;;;;;6248384;22;20445;-84
2023/12/12 13:15:10;;;;;;;0.00;0.00;;;;;;;;;;6275061;22;19999;-85
2023/12/12 13:17:35;;;;;;;0.00;0.00;;;;;;;;;;6248169;22;19999;-85
2023/12/12 13:20:08;;;;;;;0.00;0.00;;;;;;;;;;6247804;22;20003;-85
2023/12/12 13:22:39;;;;;;;0.00;0.00;;;;;;;;;;6249920;22;20004;-85
2023/12/12 13:25:09;;;;;;;0.00;0.00;;;;;;;;;;6248611;22;20193;-85
2023/12/12 13:27:35;;;;;;;0.00;0.00;;;;;;;;;;6248608;22;20003;-85
2023/12/12 13:30:00;;;;;;;0.00;0.00;;;;;;;;;;6275321;22;20034;-85
2023/12/12 13:32:26;;;;;;;0.00;0.00;;;;;;;;;;6248635;22;20069;-84
2023/12/12 13:34:52;;;;;;;0.00;0.00;;;;;;;;;;6248500;22;20053;-85
2023/12/12 13:37:18;;;;;;;0.00;0.00;;;;;;;;;;6248685;22;20070;-85
2023/12/12 13:39:44;;;;;;;0.00;0.00;;;;;;;;;;6275328;22;20004;-85
2023/12/12 13:42:09;;;;;;;0.00;0.00;;;;;;;;;;6222772;22;20425;-85
2023/12/12 13:44:35;;;;;;;0.00;0.00;;;;;;;;;;6223418;22;20030;-84
2023/12/12 13:47:00;;;;;;;0.00;0.00;;;;;;;;;;6225185;22;20018;-84
2023/12/12 13:49:26;;;;;;;0.00;0.00;;;;;;;;;;6248292;22;20000;-84
2023/12/12 13:51:51;;;;;;;0.00;0.00;;;;;;;;;;6275048;22;19996;-84
2023/12/12 13:54:17;;;;;;;0.00;0.00;;;;;;;;;;6247913;22;20443;-85
2023/12/12 13:56:43;;;;;;;0.00;0.00;;;;;;;;;;6248293;22;20026;-85
2023/12/12 13:59:08;;;;;;;0.03;0.00;;;;;;;;;;6275210;22;20004;-84
2023/12/12 14:01:34;;;;;;;0.00;0.00;;;;;;;;;;6248712;22;20312;-85
2023/12/12 14:03:59;;;;;;;0.10;0.00;;;;;;;;;;6248240;22;20031;-85
2023/12/12 14:06:25;;;;;;;0.00;0.00;;;;;;;;;;6275419;22;20049;-85
2023/12/12 14:08:50;;;;;;;0.00;0.00;;;;;;;;;;6275427;22;20000;-85
2023/12/12 14:11:16;;;;;;;0.00;0.00;;;;;;;;;;6247869;22;19999;-85
2023/12/12 14:13:41;;;;;;;0.00;0.00;;;;;;;;;;6248791;22;20565;-85
2023/12/12 14:16:07;;;;;;;0.00;0.00;;;;;;;;;;6275684;22;20046;-85
2023/12/12 14:18:33;;;;;;;0.00;0.00;;;;;;;;;;6248169;22;20008;-84
2023/12/12 14:20:58;;;;;;;0.00;0.00;;;;;;;;;;6270728;22;20006;-85
2023/12/12 14:23:24;;;;;;;0.00;0.00;;;;;;;;;;6247207;22;20013;-85
2023/12/12 14:25:49;;;;;;;0.00;0.00;;;;;;;;;;6274211;22;20074;-85
2023/12/12 14:28:16;;;;;;;0.08;0.05;;;;;;;;;;6271165;22;20000;-85
2023/12/12 14:30:41;;;;;;;0.20;0.00;;;;;;;;;;6273079;22;20006;-85
2023/12/12 14:33:07;;;;;;;0.00;0.00;;;;;;;;;;6274505;22;20076;-86
2023/12/12 14:35:33;;;;;;;0.00;0.00;;;;;;;;;;6247717;22;20006;-85
2023/12/12 14:37:58;;;;;;;0.00;0.00;;;;;;;;;;6247036;22;20423;-84
2023/12/12 14:40:25;;;;;;;0.00;0.00;;;;;;;;;;6246996;22;20011;-85
2023/12/12 14:42:51;;;;;;;0.00;0.00;;;;;;;;;;6247279;22;20419;-85
2023/12/12 14:45:16;;;;;;;0.00;0.00;;;;;;;;;;6247367;22;19999;-84
2023/12/12 14:47:42;;;;;;;0.10;0.00;;;;;;;;;;6247282;22;20347;-85
2023/12/12 14:50:08;;;;;;;0.00;0.00;;;;;;;;;;6247464;22;20019;-85
2023/12/12 14:52:33;;;;;;;0.00;0.00;;;;;;;;;;6246425;22;20368;-85
2023/12/12 14:54:59;;;;;;;0.00;0.00;;;;;;;;;;6247506;22;20115;-83
2023/12/12 14:57:24;;;;;;;0.00;0.00;;;;;;;;;;6247509;22;20008;-84
2023/12/12 14:59:51;;;;;;;0.00;0.00;;;;;;;;;;6247616;22;20003;-84
2023/12/12 15:02:16;;;;;;;0.00;0.00;;;;;;;;;;6247620;22;20065;-84
2023/12/12 15:04:42;;;;;;;0.00;0.00;;;;;;;;;;6274997;22;20027;-84
2023/12/12 15:07:07;;;;;;;0.00;0.00;;;;;;;;;;6247743;22;20010;-84
2023/12/12 15:09:33;;;;;;;0.00;0.00;;;;;;;;;;6247047;22;20082;-84
2023/12/12 15:11:58;;;;;;;0.00;0.00;;;;;;;;;;6274465;22;20004;-83
2023/12/12 15:14:24;;;;;;;0.00;0.00;;;;;;;;;;6247801;22;19996;-84
2023/12/12 15:16:49;;;;;;;0.10;0.00;;;;;;;;;;6274378;22;20058;-84
2023/12/12 15:19:15;;;;;;;0.00;0.00;;;;;;;;;;6274634;22;20425;-84
2023/12/12 15:21:41;;;;;;;0.00;0.00;;;;;;;;;;6274611;22;20004;-83
2023/12/12 15:24:07;;;;;;;0.00;0.00;;;;;;;;;;6273850;22;20006;-84
2023/12/12 15:26:33;;;;;;;0.00;0.00;;;;;;;;;;6274412;22;20442;-84
2023/12/12 15:29:00;;;;;;;0.00;0.00;;;;;;;;;;6274376;22;20071;-84
2023/12/12 15:31:28;;;;;;;0.00;0.00;;;;;;;;;;6247690;22;20010;-85
2023/12/12 15:33:55;;;;;;;0.00;0.00;;;;;;;;;;6274220;22;20004;-83
2023/12/12 15:36:20;;;;;;;0.00;0.00;;;;;;;;;;6274265;22;20450;-84
2023/12/12 15:38:47;;;;;;;0.00;0.00;;;;;;;;;;6222103;22;20008;-84
2023/12/12 15:41:13;;;;;;;0.00;0.00;;;;;;;;;;6247603;22;20031;-84
2023/12/12 15:43:39;;;;;;;0.00;0.00;;;;;;;;;;6274321;22;20342;-84
2023/12/12 15:46:05;;;;;;;0.00;0.00;;;;;;;;;;6247316;22;20438;-84